Current Weather

Camilo Daza

Camilo Daza, Colombia (SKCC)

Report from: Saturday, July 13, 2024 7:00 PM -05
Current time: Saturday, July 13, 2024 7:42 PM -05

Nearby weather – Weather history – Daily summaries
Weather forecast

Temperature29.0°C (84.2°F)
Heat index31.6°C (88.8°F)
Dew point21.0°C (69.8°F)
Winds 3 kts (1.5 m/s, 3.5 mph) North-Northwest (330°)
Visibility6.2 mi. (10 km)
Clouds Few clouds 2,300 ft. (701 m)
Altimeter29.94 in.Hg (1014 mB)
Relative humidity62 %
Density altitude1,918 ft. (585 m)
Flight conditions Visual Meteorological Conditions
Raw dataSKCC 140000Z 33003KT 9999 FEW023 29/21 Q1014
An error has occurred. This application may no longer respond until reloaded. Reload 🗙